Time;durP1;ratioP1;P1;durP2;ratioP2;P2;SDS_P1;SDS_P2;PMS_P1;PMS_P2;Temp;Humidity;BMP_temperature;BMP_pressure;BME280_temperature;BME280_humidity;BME280_pressure;Samples;Min_cycle;Max_cycle;Signal;HPM_P1;HPM_P2
2022/09/28 00:04:19;;;;;;;1.07;0.60;;;;;;;;;;21048427;28;20606;-69
2022/09/28 00:14:21;;;;;;;2.30;0.40;;;;;;;;;;21047275;28;20247;-71
2022/09/28 00:24:23;;;;;;;0.30;0.30;;;;;;;;;;21042636;28;20282;-68
2022/09/28 00:34:30;;;;;;;0.80;0.27;;;;;;;;;;21048924;28;20740;-69
2022/09/28 00:44:36;;;;;;;3.63;0.60;;;;;;;;;;21047080;28;20590;-68
2022/09/28 00:54:38;;;;;;;0.10;0.10;;;;;;;;;;21064214;28;20318;-68
2022/09/28 01:04:44;;;;;;;0.20;0.20;;;;;;;;;;21046215;28;20298;-68
2022/09/28 01:14:46;;;;;;;1.80;0.30;;;;;;;;;;21012003;28;20208;-68
2022/09/28 01:25:12;;;;;;;0.40;0.20;;;11.00;99.90;;;;;;21043615;28;20220;-68
2022/09/28 01:35:21;;;;;;;0.10;0.10;;;11.10;99.90;;;;;;21060334;28;20223;-68
2022/09/28 01:45:27;;;;;;;0.53;0.30;;;;;;;;;;21029975;28;20220;-69
2022/09/28 01:55:38;;;;;;;0.17;0.17;;;;;;;;;;21020203;28;20242;-68
2022/09/28 02:06:00;;;;;;;0.50;0.30;;;11.20;99.90;;;;;;21037026;28;20250;-68
2022/09/28 02:16:05;;;;;;;0.20;0.20;;;;;;;;;;21037805;28;20231;-68
2022/09/28 02:26:12;;;;;;;0.40;0.17;;;11.10;99.90;;;;;;21005795;28;20583;-68
2022/09/28 02:36:15;;;;;;;0.30;0.20;;;;;;;;;;21008619;28;20212;-68
2022/09/28 02:46:20;;;;;;;0.10;0.10;;;;;;;;;;21038810;28;20274;-68
2022/09/28 02:57:09;;;;;;;0.20;0.10;;;11.20;99.90;;;;;;21063996;22;20233;-69
2022/09/28 03:07:18;;;;;;;0.30;0.23;;;;;;;;;;21049117;28;20228;-69
2022/09/28 03:17:21;;;;;;;0.50;0.20;;;;;;;;;;21015763;28;20345;-70
2022/09/28 03:27:23;;;;;;;0.47;0.33;;;;;;;;;;21066483;28;20223;-69
2022/09/28 03:37:26;;;;;;;0.40;0.30;;;;;;;;;;21058815;28;20269;-69
2022/09/28 03:47:27;;;;;;;0.30;0.30;;;;;;;;;;21018405;28;20577;-69
2022/09/28 03:57:32;;;;;;;0.40;0.20;;;;;;;;;;21019317;28;20305;-69
2022/09/28 04:07:34;;;;;;;0.37;0.30;;;;;;;;;;21026667;28;20250;-70
2022/09/28 04:17:37;;;;;;;0.80;0.30;;;;;;;;;;21020017;28;20239;-69
2022/09/28 04:38:03;;;;;;;0.70;0.50;;;;;;;;;;21043624;28;20208;-69
2022/09/28 04:48:06;;;;;;;0.73;0.40;;;;;;;;;;21024530;28;20229;-69
2022/09/28 04:58:27;;;;;;;0.30;0.30;;;;;;;;;;21041927;28;20780;-68
2022/09/28 05:08:30;;;;;;;1.33;0.77;;;;;;;;;;21053396;28;20224;-68
2022/09/28 05:18:33;;;;;;;1.27;0.43;;;;;;;;;;21017145;28;20232;-67
2022/09/28 05:28:37;;;;;;;1.00;0.33;;;;;;;;;;20987907;28;20220;-68
2022/09/28 05:38:58;;;;;;;0.53;0.30;;;;;;;;;;21007244;28;20568;-69
2022/09/28 05:49:00;;;;;;;1.13;0.33;;;;;;;;;;21018444;28;20250;-69
2022/09/28 05:59:04;;;;;;;3.17;0.50;;;;;;;;;;21036829;28;20314;-69
2022/09/28 06:09:07;;;;;;;0.70;0.30;;;;;;;;;;21018548;28;20270;-69
2022/09/28 06:19:26;;;;;;;0.50;0.30;;;;;;;;;;21019934;28;20204;-69
2022/09/28 06:29:41;;;;;;;1.03;0.50;;;;;;;;;;21036497;28;20756;-69
2022/09/28 06:39:43;;;;;;;0.60;0.30;;;;;;;;;;21017579;28;20614;-69
2022/09/28 06:49:46;;;;;;;1.47;0.30;;;;;;;;;;21033477;28;20572;-69
2022/09/28 07:00:12;;;;;;;0.60;0.40;;;;;;;;;;21004673;28;20258;-69
2022/09/28 07:10:14;;;;;;;0.50;0.37;;;;;;;;;;21016861;28;20220;-70
2022/09/28 07:20:36;;;;;;;0.97;0.50;;;11.70;99.90;;;;;;21022175;28;20246;-70
2022/09/28 07:30:38;;;;;;;0.47;0.40;;;;;;;;;;21029705;28;20667;-70
2022/09/28 07:41:21;;;;;;;1.17;0.80;;;;;;;;;;21031688;28;20208;-70
2022/09/28 07:51:21;;;;;;;1.23;0.70;;;;;;;;;;21044980;28;20364;-70
2022/09/28 08:01:50;;;;;;;2.73;1.10;;;;;;;;;;21064949;28;20841;-70
2022/09/28 08:11:53;;;;;;;1.67;0.50;;;;;;;;;;21027703;28;20250;-70
2022/09/28 08:22:11;;;;;;;1.20;0.93;;;;;;;;;;21059270;28;20733;-70
2022/09/28 08:32:18;;;;;;;1.80;0.53;;;;;;;;;;21042073;28;20228;-70
2022/09/28 08:42:47;;;;;;;0.53;0.23;;;;;;;;;;21032546;28;20277;-70
2022/09/28 08:53:26;;;;;;;2.10;0.60;;;12.90;99.90;;;;;;21045355;28;20232;-70
2022/09/28 09:03:40;;;;;;;1.33;0.50;;;;;;;;;;21025158;28;20289;-69
2022/09/28 09:14:11;;;;;;;1.07;0.30;;;;;;;;;;21058278;28;20220;-69
2022/09/28 09:24:47;;;;;;;1.20;0.50;;;13.30;99.90;;;;;;21022675;28;20315;-69
2022/09/28 09:34:55;;;;;;;0.87;0.33;;;;;;;;;;21004217;28;20572;-70
2022/09/28 09:45:38;;;;;;;0.43;0.40;;;;;;;;;;21036760;28;20561;-70
2022/09/28 09:56:14;;;;;;;1.30;0.80;;;;;;;;;;20986404;28;20228;-69
2022/09/28 10:06:41;;;;;;;2.10;0.50;;;;;;;;;;21030164;28;20290;-69
2022/09/28 10:16:47;;;;;;;0.43;0.30;;;13.30;99.90;;;;;;21034978;28;20250;-69
2022/09/28 10:27:21;;;;;;;0.33;0.30;;;;;;;;;;21019137;28;20220;-69
2022/09/28 10:37:23;;;;;;;0.57;0.43;;;;;;;;;;21007826;28;20224;-70
2022/09/28 10:47:43;;;;;;;1.20;0.60;;;;;;;;;;21036268;28;20232;-70
2022/09/28 10:57:47;;;;;;;2.43;0.40;;;;;;;;;;21035872;28;20232;-69
2022/09/28 11:07:51;;;;;;;0.30;0.30;;;;;;;;;;21032844;28;20656;-69
2022/09/28 11:18:18;;;;;;;0.60;0.40;;;;;;;;;;21032965;28;20238;-70
2022/09/28 11:28:23;;;;;;;0.73;0.40;;;14.60;99.90;;;;;;21030667;28;20224;-70
2022/09/28 11:38:25;;;;;;;2.20;0.30;;;;;;;;;;21030189;28;20204;-69
2022/09/28 11:49:02;;;;;;;2.50;0.53;;;14.70;99.90;;;;;;21040569;28;20562;-70
2022/09/28 11:59:16;;;;;;;0.63;0.30;;;14.40;99.90;;;;;;21012957;28;20253;-70
2022/09/28 12:09:49;;;;;;;0.33;0.33;;;14.30;99.90;;;;;;21043652;28;20232;-69
2022/09/28 12:20:04;;;;;;;0.90;0.50;;;14.40;99.90;;;;;;21044111;28;20679;-70
2022/09/28 12:30:20;;;;;;;1.27;0.40;;;14.40;99.90;;;;;;21026071;28;20216;-70
2022/09/28 12:40:42;;;;;;;0.47;0.40;;;;;;;;;;21025601;28;20208;-70
2022/09/28 12:51:12;;;;;;;0.37;0.30;;;14.70;99.90;;;;;;21024847;28;20412;-70
2022/09/28 13:01:56;;;;;;;1.40;0.70;;;15.30;99.90;;;;;;21030069;28;20278;-69
2022/09/28 13:12:37;;;;;;;1.60;0.40;;;;;;;;;;21023162;28;20465;-70
2022/09/28 13:22:55;;;;;;;0.40;0.33;;;14.70;99.90;;;;;;20814890;28;20216;-70
2022/09/28 13:32:58;;;;;;;1.10;0.37;;;;;;;;;;21021236;28;20281;-69
2022/09/28 13:43:09;;;;;;;1.17;0.40;;;;;;;;;;21036307;28;20559;-69
2022/09/28 13:53:23;;;;;;;1.50;0.30;;;;;;;;;;21019206;28;20254;-69
2022/09/28 14:03:24;;;;;;;2.13;0.60;;;;;;;;;;21019106;28;20277;-69
2022/09/28 14:13:41;;;;;;;0.70;0.37;;;14.60;99.90;;;;;;21018533;28;20212;-70
2022/09/28 14:24:11;;;;;;;0.93;0.50;;;15.70;99.90;;;;;;21018180;28;20238;-70
2022/09/28 14:34:24;;;;;;;0.53;0.30;;;;;;;;;;21022935;28;20273;-69
2022/09/28 14:44:26;;;;;;;1.10;0.30;;;;;;;;;;21034281;28;20254;-69
2022/09/28 14:54:38;;;;;;;1.40;0.40;;;;;;;;;;21007041;22;20232;-69
2022/09/28 15:04:42;;;;;;;0.67;0.50;;;;;;;;;;20948990;28;20767;-69
2022/09/28 15:15:00;;;;;;;1.50;0.70;;;;;;;;;;20964737;28;20278;-68
2022/09/28 15:25:02;;;;;;;0.40;0.40;;;;;;;;;;20944124;28;20225;-69
2022/09/28 15:35:25;;;;;;;3.40;0.63;;;;;;;;;;20918175;28;20278;-69
2022/09/28 15:46:00;;;;;;;1.00;0.50;;;14.40;99.90;;;;;;20927309;28;20302;-69
2022/09/28 15:56:08;;;;;;;0.63;0.43;;;;;;;;;;20942637;28;20221;-69
2022/09/28 16:06:11;;;;;;;0.50;0.30;;;;;;;;;;20966336;28;20275;-69
2022/09/28 16:16:16;;;;;;;0.87;0.50;;;;;;;;;;20895059;28;20272;-68
2022/09/28 16:26:32;;;;;;;0.77;0.50;;;14.30;99.90;;;;;;20943791;28;20255;-69
2022/09/28 16:36:44;;;;;;;1.10;0.50;;;14.30;99.90;;;;;;20902518;28;20274;-69
2022/09/28 16:46:46;;;;;;;3.83;1.80;;;14.30;99.90;;;;;;20921908;28;20225;-69
2022/09/28 16:56:49;;;;;;;3.00;1.10;;;;;;;;;;20925788;28;20314;-69
2022/09/28 17:06:53;;;;;;;0.70;0.50;;;;;;;;;;20905582;28;20278;-69
2022/09/28 17:16:56;;;;;;;0.60;0.50;;;;;;;;;;20925893;28;20251;-69
2022/09/28 17:26:59;;;;;;;1.50;0.70;;;10.00;99.90;;;;;;20948865;28;20229;-69
2022/09/28 17:37:02;;;;;;;2.13;0.50;;;;;;;;;;20924903;28;20237;-69
2022/09/28 17:47:04;;;;;;;0.77;0.57;;;;;;;;;;20933856;28;20646;-68
2022/09/28 17:57:05;;;;;;;0.90;0.47;;;;;;;;;;20952506;28;20216;-68
2022/09/28 18:07:08;;;;;;;0.47;0.40;;;;;;;;;;20935213;28;20631;-69
2022/09/28 18:17:10;;;;;;;2.37;0.70;;;;;;;;;;20935928;28;20197;-69
2022/09/28 18:27:12;;;;;;;1.13;0.50;;;;;;;;;;20951483;28;20287;-68
2022/09/28 18:37:14;;;;;;;0.40;0.40;;;13.50;99.90;;;;;;20852562;28;20671;-67
2022/09/28 18:47:16;;;;;;;1.33;0.63;;;;;;;;;;20878111;28;20270;-66
2022/09/28 18:57:19;;;;;;;2.77;1.63;;;;;;;;;;20868181;28;20371;-67
2022/09/28 19:07:22;;;;;;;4.27;0.73;;;;;;;;;;20861340;28;20287;-66
2022/09/28 19:17:23;;;;;;;1.33;0.50;;;;;;;;;;20941788;28;20266;-66
2022/09/28 19:27:25;;;;;;;0.53;0.53;;;;;;;;;;20931709;28;20350;-66
2022/09/28 19:37:27;;;;;;;0.97;0.57;;;;;;;;;;20964150;28;20234;-66
2022/09/28 19:47:30;;;;;;;0.53;0.50;;;;;;;;;;20946592;28;20283;-66
2022/09/28 19:57:33;;;;;;;1.07;0.70;;;;;;;;;;20945910;28;20259;-67
2022/09/28 20:07:38;;;;;;;1.20;0.57;;;;;;;;;;20960707;28;20229;-66
2022/09/28 20:17:39;;;;;;;1.90;0.73;;;;;;;;;;20943511;28;20201;-66
2022/09/28 20:27:42;;;;;;;1.17;0.90;;;;;;;;;;20959425;28;20643;-66
2022/09/28 20:37:44;;;;;;;0.80;0.67;;;;;;;;;;20941578;28;20205;-66
2022/09/28 20:47:46;;;;;;;1.20;0.87;;;;;;;;;;20941670;28;20692;-66
2022/09/28 20:57:48;;;;;;;2.10;0.90;;;;;;;;;;20935457;22;20860;-69
2022/09/28 21:07:50;;;;;;;2.53;1.07;;;;;;;;;;20906004;28;20506;-70
2022/09/28 21:17:51;;;;;;;1.87;0.70;;;;;;;;;;20899904;28;20213;-69
2022/09/28 21:27:53;;;;;;;1.63;0.70;;;;;;;;;;20903118;28;20238;-70
2022/09/28 21:37:56;;;;;;;1.40;0.80;;;;;;;;;;20884838;28;20221;-70
2022/09/28 21:47:58;;;;;;;3.40;0.80;;;;;;;;;;20902524;28;20214;-70
2022/09/28 21:58:00;;;;;;;1.27;0.70;;;;;;;;;;20882734;28;20271;-70
2022/09/28 22:08:01;;;;;;;0.70;0.57;;;;;;;;;;20898792;28;20279;-70
2022/09/28 22:18:03;;;;;;;1.57;0.57;;;;;;;;;;20899627;28;20202;-70
2022/09/28 22:28:04;;;;;;;1.77;0.83;;;;;;;;;;20883143;28;20338;-70
2022/09/28 22:38:07;;;;;;;0.80;0.70;;;;;;;;;;20899296;28;20217;-70
2022/09/28 22:48:09;;;;;;;2.17;0.73;;;;;;;;;;20899556;28;20225;-70
2022/09/28 22:58:10;;;;;;;1.23;0.70;;;11.60;99.90;;;;;;20909074;28;20221;-70
2022/09/28 23:08:12;;;;;;;0.80;0.60;;;;;;;;;;20913504;28;20267;-70
2022/09/28 23:18:14;;;;;;;0.93;0.70;;;;;;;;;;20911956;28;20198;-70
2022/09/28 23:28:16;;;;;;;0.90;0.70;;;;;;;;;;20912501;28;20299;-69
2022/09/28 23:38:18;;;;;;;1.53;1.00;;;;;;;;;;20912738;28;20198;-69
2022/09/28 23:48:19;;;;;;;1.30;0.80;;;;;;;;;;20912317;28;20644;-69
2022/09/28 23:58:22;;;;;;;3.03;1.17;;;;;;;;;;20909786;28;20296;-69
